sensor_id;sensor_type;location;lat;lon;timestamp;P1;durP1;ratioP1;P2;durP2;ratioP2
50309;SDS011;36207;51.850;21.698;2023-03-11T00:01:36;16.50;;;9.40;;
50309;SDS011;36207;51.850;21.698;2023-03-11T00:04:05;17.30;;;9.90;;
50309;SDS011;36207;51.850;21.698;2023-03-11T00:06:34;18.50;;;9.60;;
50309;SDS011;36207;51.850;21.698;2023-03-11T00:09:00;14.30;;;9.30;;
50309;SDS011;36207;51.850;21.698;2023-03-11T00:11:26;16.20;;;9.30;;
50309;SDS011;36207;51.850;21.698;2023-03-11T00:13:52;14.40;;;9.20;;
50309;SDS011;36207;51.850;21.698;2023-03-11T00:16:18;14.70;;;9.40;;
50309;SDS011;36207;51.850;21.698;2023-03-11T00:18:44;15.30;;;9.60;;
50309;SDS011;36207;51.850;21.698;2023-03-11T00:21:13;19.00;;;10.60;;
50309;SDS011;36207;51.850;21.698;2023-03-11T00:23:41;17.80;;;10.30;;
50309;SDS011;36207;51.850;21.698;2023-03-11T00:26:07;16.50;;;10.20;;
50309;SDS011;36207;51.850;21.698;2023-03-11T00:28:33;15.40;;;9.20;;
50309;SDS011;36207;51.850;21.698;2023-03-11T00:30:59;15.10;;;9.00;;
50309;SDS011;36207;51.850;21.698;2023-03-11T00:33:25;16.00;;;9.20;;
50309;SDS011;36207;51.850;21.698;2023-03-11T00:35:51;14.70;;;8.90;;
50309;SDS011;36207;51.850;21.698;2023-03-11T00:38:17;14.50;;;8.80;;
50309;SDS011;36207;51.850;21.698;2023-03-11T00:40:43;14.00;;;8.60;;
50309;SDS011;36207;51.850;21.698;2023-03-11T00:43:11;16.50;;;8.80;;
50309;SDS011;36207;51.850;21.698;2023-03-11T00:45:37;14.20;;;8.50;;
50309;SDS011;36207;51.850;21.698;2023-03-11T00:48:03;14.40;;;9.00;;
50309;SDS011;36207;51.850;21.698;2023-03-11T00:50:31;14.20;;;8.80;;
50309;SDS011;36207;51.850;21.698;2023-03-11T00:52:59;15.40;;;8.30;;
50309;SDS011;36207;51.850;21.698;2023-03-11T00:55:30;14.20;;;8.20;;
50309;SDS011;36207;51.850;21.698;2023-03-11T00:57:59;14.50;;;7.50;;
50309;SDS011;36207;51.850;21.698;2023-03-11T01:00:27;11.00;;;6.80;;
50309;SDS011;36207;51.850;21.698;2023-03-11T01:02:54;13.90;;;7.60;;
50309;SDS011;36207;51.850;21.698;2023-03-11T01:05:22;11.70;;;6.70;;
50309;SDS011;36207;51.850;21.698;2023-03-11T01:07:50;8.70;;;5.50;;
50309;SDS011;36207;51.850;21.698;2023-03-11T01:10:16;11.20;;;5.50;;
50309;SDS011;36207;51.850;21.698;2023-03-11T01:12:42;9.90;;;5.70;;
50309;SDS011;36207;51.850;21.698;2023-03-11T01:15:11;10.40;;;5.60;;
50309;SDS011;36207;51.850;21.698;2023-03-11T01:17:42;9.80;;;5.10;;
50309;SDS011;36207;51.850;21.698;2023-03-11T01:20:08;8.50;;;4.80;;
50309;SDS011;36207;51.850;21.698;2023-03-11T01:22:35;7.90;;;4.90;;
50309;SDS011;36207;51.850;21.698;2023-03-11T01:25:01;8.20;;;5.10;;
50309;SDS011;36207;51.850;21.698;2023-03-11T01:27:28;8.60;;;4.80;;
50309;SDS011;36207;51.850;21.698;2023-03-11T01:29:55;6.70;;;4.40;;
50309;SDS011;36207;51.850;21.698;2023-03-11T01:32:21;9.30;;;4.50;;
50309;SDS011;36207;51.850;21.698;2023-03-11T01:34:47;7.80;;;4.60;;
50309;SDS011;36207;51.850;21.698;2023-03-11T01:37:13;7.90;;;4.40;;
50309;SDS011;36207;51.850;21.698;2023-03-11T01:39:39;7.50;;;4.10;;
50309;SDS011;36207;51.850;21.698;2023-03-11T01:42:05;7.80;;;4.30;;
50309;SDS011;36207;51.850;21.698;2023-03-11T01:44:31;8.60;;;4.70;;
50309;SDS011;36207;51.850;21.698;2023-03-11T01:49:26;7.80;;;4.40;;
50309;SDS011;36207;51.850;21.698;2023-03-11T01:51:53;11.20;;;4.50;;
50309;SDS011;36207;51.850;21.698;2023-03-11T01:54:24;8.20;;;4.70;;
50309;SDS011;36207;51.850;21.698;2023-03-11T01:56:52;8.50;;;4.20;;
50309;SDS011;36207;51.850;21.698;2023-03-11T01:59:23;9.10;;;4.40;;
50309;SDS011;36207;51.850;21.698;2023-03-11T02:04:46;8.80;;;4.10;;
50309;SDS011;36207;51.850;21.698;2023-03-11T02:07:14;8.30;;;4.60;;
50309;SDS011;36207;51.850;21.698;2023-03-11T02:09:40;8.60;;;4.30;;
50309;SDS011;36207;51.850;21.698;2023-03-11T02:12:06;5.70;;;3.80;;
50309;SDS011;36207;51.850;21.698;2023-03-11T02:14:35;10.10;;;4.30;;
50309;SDS011;36207;51.850;21.698;2023-03-11T02:17:04;9.30;;;4.50;;
50309;SDS011;36207;51.850;21.698;2023-03-11T02:22:22;7.40;;;4.20;;
50309;SDS011;36207;51.850;21.698;2023-03-11T02:27:34;8.00;;;4.40;;
50309;SDS011;36207;51.850;21.698;2023-03-11T02:30:05;8.80;;;4.40;;
50309;SDS011;36207;51.850;21.698;2023-03-11T02:32:33;6.50;;;4.00;;
50309;SDS011;36207;51.850;21.698;2023-03-11T02:35:00;7.00;;;4.20;;
50309;SDS011;36207;51.850;21.698;2023-03-11T02:37:25;8.80;;;4.70;;
50309;SDS011;36207;51.850;21.698;2023-03-11T02:39:52;7.60;;;4.60;;
50309;SDS011;36207;51.850;21.698;2023-03-11T02:42:23;8.40;;;4.50;;
50309;SDS011;36207;51.850;21.698;2023-03-11T02:44:58;9.00;;;4.50;;
50309;SDS011;36207;51.850;21.698;2023-03-11T02:47:25;7.40;;;4.50;;
50309;SDS011;36207;51.850;21.698;2023-03-11T02:49:53;9.70;;;5.10;;
50309;SDS011;36207;51.850;21.698;2023-03-11T02:52:21;8.90;;;4.70;;
50309;SDS011;36207;51.850;21.698;2023-03-11T02:54:49;9.10;;;4.90;;
50309;SDS011;36207;51.850;21.698;2023-03-11T02:57:15;9.40;;;5.10;;
50309;SDS011;36207;51.850;21.698;2023-03-11T02:59:41;9.70;;;5.10;;
50309;SDS011;36207;51.850;21.698;2023-03-11T03:02:07;7.90;;;4.90;;
50309;SDS011;36207;51.850;21.698;2023-03-11T03:04:32;7.80;;;4.90;;
50309;SDS011;36207;51.850;21.698;2023-03-11T03:06:58;8.00;;;4.80;;
50309;SDS011;36207;51.850;21.698;2023-03-11T03:09:24;8.70;;;5.30;;
50309;SDS011;36207;51.850;21.698;2023-03-11T03:11:50;9.30;;;5.10;;
50309;SDS011;36207;51.850;21.698;2023-03-11T03:14:16;8.80;;;5.20;;
50309;SDS011;36207;51.850;21.698;2023-03-11T03:16:42;9.20;;;5.40;;
50309;SDS011;36207;51.850;21.698;2023-03-11T03:19:08;8.00;;;5.20;;
50309;SDS011;36207;51.850;21.698;2023-03-11T03:21:33;8.90;;;5.60;;
50309;SDS011;36207;51.850;21.698;2023-03-11T03:23:59;8.70;;;5.10;;
50309;SDS011;36207;51.850;21.698;2023-03-11T03:26:25;8.60;;;5.70;;
50309;SDS011;36207;51.850;21.698;2023-03-11T03:28:51;9.00;;;5.70;;
50309;SDS011;36207;51.850;21.698;2023-03-11T03:31:17;9.40;;;5.50;;
50309;SDS011;36207;51.850;21.698;2023-03-11T03:33:44;9.30;;;5.70;;
50309;SDS011;36207;51.850;21.698;2023-03-11T03:36:10;9.30;;;5.50;;
50309;SDS011;36207;51.850;21.698;2023-03-11T03:38:38;10.80;;;5.80;;
50309;SDS011;36207;51.850;21.698;2023-03-11T03:41:04;10.50;;;5.90;;
50309;SDS011;36207;51.850;21.698;2023-03-11T03:43:30;11.60;;;5.80;;
50309;SDS011;36207;51.850;21.698;2023-03-11T03:46:00;10.30;;;6.20;;
50309;SDS011;36207;51.850;21.698;2023-03-11T03:48:28;11.10;;;6.40;;
50309;SDS011;36207;51.850;21.698;2023-03-11T03:50:54;9.00;;;5.70;;
50309;SDS011;36207;51.850;21.698;2023-03-11T03:53:20;10.50;;;6.40;;
50309;SDS011;36207;51.850;21.698;2023-03-11T03:55:46;10.80;;;6.00;;
50309;SDS011;36207;51.850;21.698;2023-03-11T03:58:14;10.80;;;6.10;;
50309;SDS011;36207;51.850;21.698;2023-03-11T04:00:40;11.80;;;6.20;;
50309;SDS011;36207;51.850;21.698;2023-03-11T04:03:05;9.90;;;5.70;;
50309;SDS011;36207;51.850;21.698;2023-03-11T04:05:31;10.70;;;5.80;;
50309;SDS011;36207;51.850;21.698;2023-03-11T04:07:57;9.90;;;5.80;;
50309;SDS011;36207;51.850;21.698;2023-03-11T04:10:23;9.90;;;6.00;;
50309;SDS011;36207;51.850;21.698;2023-03-11T04:12:49;10.40;;;6.20;;
50309;SDS011;36207;51.850;21.698;2023-03-11T04:15:15;11.60;;;6.20;;
50309;SDS011;36207;51.850;21.698;2023-03-11T04:17:40;11.20;;;6.50;;
50309;SDS011;36207;51.850;21.698;2023-03-11T04:20:07;9.80;;;6.20;;
50309;SDS011;36207;51.850;21.698;2023-03-11T04:22:34;12.40;;;6.20;;
50309;SDS011;36207;51.850;21.698;2023-03-11T04:25:01;10.40;;;6.40;;
50309;SDS011;36207;51.850;21.698;2023-03-11T04:27:27;13.30;;;6.40;;
50309;SDS011;36207;51.850;21.698;2023-03-11T04:29:52;10.10;;;6.10;;
50309;SDS011;36207;51.850;21.698;2023-03-11T04:32:18;11.40;;;6.00;;
50309;SDS011;36207;51.850;21.698;2023-03-11T04:34:44;12.10;;;6.30;;
50309;SDS011;36207;51.850;21.698;2023-03-11T04:37:10;11.00;;;6.50;;
50309;SDS011;36207;51.850;21.698;2023-03-11T04:39:36;10.60;;;6.40;;
50309;SDS011;36207;51.850;21.698;2023-03-11T04:42:02;11.30;;;6.40;;
50309;SDS011;36207;51.850;21.698;2023-03-11T04:44:28;10.00;;;6.40;;
50309;SDS011;36207;51.850;21.698;2023-03-11T04:46:54;11.80;;;6.90;;
50309;SDS011;36207;51.850;21.698;2023-03-11T04:49:20;10.50;;;6.60;;
50309;SDS011;36207;51.850;21.698;2023-03-11T04:51:46;11.20;;;6.30;;
50309;SDS011;36207;51.850;21.698;2023-03-11T04:54:12;12.10;;;6.50;;
50309;SDS011;36207;51.850;21.698;2023-03-11T04:56:38;11.60;;;6.60;;
50309;SDS011;36207;51.850;21.698;2023-03-11T04:59:03;10.40;;;6.00;;
50309;SDS011;36207;51.850;21.698;2023-03-11T05:01:29;11.00;;;6.70;;
50309;SDS011;36207;51.850;21.698;2023-03-11T05:03:55;11.90;;;7.00;;
50309;SDS011;36207;51.850;21.698;2023-03-11T05:06:21;10.60;;;6.50;;
50309;SDS011;36207;51.850;21.698;2023-03-11T05:08:47;12.10;;;6.80;;
50309;SDS011;36207;51.850;21.698;2023-03-11T05:11:13;10.80;;;6.40;;
50309;SDS011;36207;51.850;21.698;2023-03-11T05:13:39;11.60;;;6.60;;
50309;SDS011;36207;51.850;21.698;2023-03-11T05:16:04;12.70;;;6.80;;
50309;SDS011;36207;51.850;21.698;2023-03-11T05:18:31;13.00;;;6.90;;
50309;SDS011;36207;51.850;21.698;2023-03-11T05:20:57;10.00;;;6.80;;
50309;SDS011;36207;51.850;21.698;2023-03-11T05:23:23;12.50;;;6.90;;
50309;SDS011;36207;51.850;21.698;2023-03-11T05:25:49;11.80;;;7.10;;
50309;SDS011;36207;51.850;21.698;2023-03-11T05:28:15;11.60;;;7.10;;
50309;SDS011;36207;51.850;21.698;2023-03-11T05:30:40;12.20;;;7.00;;
50309;SDS011;36207;51.850;21.698;2023-03-11T05:33:06;15.20;;;8.60;;
50309;SDS011;36207;51.850;21.698;2023-03-11T05:35:32;15.50;;;9.10;;
50309;SDS011;36207;51.850;21.698;2023-03-11T05:37:58;14.60;;;8.90;;
50309;SDS011;36207;51.850;21.698;2023-03-11T05:40:24;17.40;;;9.20;;
50309;SDS011;36207;51.850;21.698;2023-03-11T05:42:50;12.10;;;7.00;;
50309;SDS011;36207;51.850;21.698;2023-03-11T05:45:16;14.60;;;7.80;;
50309;SDS011;36207;51.850;21.698;2023-03-11T05:47:42;12.10;;;7.30;;
50309;SDS011;36207;51.850;21.698;2023-03-11T05:50:08;13.60;;;7.30;;
50309;SDS011;36207;51.850;21.698;2023-03-11T05:52:35;10.50;;;6.60;;
50309;SDS011;36207;51.850;21.698;2023-03-11T05:55:01;11.80;;;7.80;;
50309;SDS011;36207;51.850;21.698;2023-03-11T05:57:27;12.60;;;7.60;;
50309;SDS011;36207;51.850;21.698;2023-03-11T05:59:53;15.90;;;10.20;;
50309;SDS011;36207;51.850;21.698;2023-03-11T06:02:19;15.70;;;9.30;;
50309;SDS011;36207;51.850;21.698;2023-03-11T06:04:45;20.70;;;9.40;;
50309;SDS011;36207;51.850;21.698;2023-03-11T06:07:12;15.80;;;10.40;;
50309;SDS011;36207;51.850;21.698;2023-03-11T06:09:39;13.30;;;7.20;;
50309;SDS011;36207;51.850;21.698;2023-03-11T06:12:05;11.10;;;6.90;;
50309;SDS011;36207;51.850;21.698;2023-03-11T06:14:32;10.60;;;6.60;;
50309;SDS011;36207;51.850;21.698;2023-03-11T06:16:58;10.00;;;5.80;;
50309;SDS011;36207;51.850;21.698;2023-03-11T06:19:24;8.10;;;5.40;;
50309;SDS011;36207;51.850;21.698;2023-03-11T06:21:51;9.10;;;5.90;;
50309;SDS011;36207;51.850;21.698;2023-03-11T06:24:17;11.00;;;5.70;;
50309;SDS011;36207;51.850;21.698;2023-03-11T06:26:43;10.80;;;6.10;;
50309;SDS011;36207;51.850;21.698;2023-03-11T06:29:12;9.60;;;5.60;;
50309;SDS011;36207;51.850;21.698;2023-03-11T06:31:39;8.20;;;5.60;;
50309;SDS011;36207;51.850;21.698;2023-03-11T06:34:06;8.90;;;5.20;;
50309;SDS011;36207;51.850;21.698;2023-03-11T06:36:32;10.50;;;5.20;;
50309;SDS011;36207;51.850;21.698;2023-03-11T06:38:57;8.80;;;5.20;;
50309;SDS011;36207;51.850;21.698;2023-03-11T06:41:24;8.20;;;5.60;;
50309;SDS011;36207;51.850;21.698;2023-03-11T06:43:50;7.90;;;5.20;;
50309;SDS011;36207;51.850;21.698;2023-03-11T06:46:17;9.30;;;5.50;;
50309;SDS011;36207;51.850;21.698;2023-03-11T06:48:45;8.70;;;5.60;;
50309;SDS011;36207;51.850;21.698;2023-03-11T06:51:11;10.90;;;6.10;;
50309;SDS011;36207;51.850;21.698;2023-03-11T06:53:38;8.80;;;5.20;;
50309;SDS011;36207;51.850;21.698;2023-03-11T06:56:05;10.70;;;5.80;;
50309;SDS011;36207;51.850;21.698;2023-03-11T06:58:33;10.70;;;5.80;;
50309;SDS011;36207;51.850;21.698;2023-03-11T07:01:05;12.90;;;7.20;;
50309;SDS011;36207;51.850;21.698;2023-03-11T07:03:33;10.30;;;6.30;;
50309;SDS011;36207;51.850;21.698;2023-03-11T07:05:59;9.80;;;6.40;;
50309;SDS011;36207;51.850;21.698;2023-03-11T07:08:25;10.20;;;5.90;;
50309;SDS011;36207;51.850;21.698;2023-03-11T07:11:08;9.60;;;5.70;;
50309;SDS011;36207;51.850;21.698;2023-03-11T07:13:37;9.80;;;5.60;;
50309;SDS011;36207;51.850;21.698;2023-03-11T07:16:07;10.60;;;5.80;;
50309;SDS011;36207;51.850;21.698;2023-03-11T07:18:39;9.50;;;5.60;;
50309;SDS011;36207;51.850;21.698;2023-03-11T07:21:06;9.30;;;5.80;;
50309;SDS011;36207;51.850;21.698;2023-03-11T07:23:34;9.90;;;5.50;;
50309;SDS011;36207;51.850;21.698;2023-03-11T07:26:00;7.60;;;5.10;;
50309;SDS011;36207;51.850;21.698;2023-03-11T07:28:26;7.50;;;5.50;;
50309;SDS011;36207;51.850;21.698;2023-03-11T07:30:53;9.10;;;6.00;;
50309;SDS011;36207;51.850;21.698;2023-03-11T07:33:20;7.80;;;5.50;;
50309;SDS011;36207;51.850;21.698;2023-03-11T07:35:48;7.70;;;5.30;;
50309;SDS011;36207;51.850;21.698;2023-03-11T07:38:15;8.80;;;5.40;;
50309;SDS011;36207;51.850;21.698;2023-03-11T07:40:42;8.60;;;5.50;;
50309;SDS011;36207;51.850;21.698;2023-03-11T07:43:09;10.10;;;5.00;;
50309;SDS011;36207;51.850;21.698;2023-03-11T07:45:35;7.80;;;4.50;;
50309;SDS011;36207;51.850;21.698;2023-03-11T07:48:01;7.40;;;4.50;;
50309;SDS011;36207;51.850;21.698;2023-03-11T07:50:27;7.00;;;4.40;;
50309;SDS011;36207;51.850;21.698;2023-03-11T07:52:53;6.40;;;4.60;;
50309;SDS011;36207;51.850;21.698;2023-03-11T07:55:19;6.60;;;4.80;;
50309;SDS011;36207;51.850;21.698;2023-03-11T07:57:46;6.60;;;4.50;;
50309;SDS011;36207;51.850;21.698;2023-03-11T08:00:13;6.10;;;4.50;;
50309;SDS011;36207;51.850;21.698;2023-03-11T08:02:40;7.00;;;4.50;;
50309;SDS011;36207;51.850;21.698;2023-03-11T08:05:06;7.20;;;4.70;;
50309;SDS011;36207;51.850;21.698;2023-03-11T08:07:33;7.60;;;4.60;;
50309;SDS011;36207;51.850;21.698;2023-03-11T08:09:59;7.00;;;4.70;;
50309;SDS011;36207;51.850;21.698;2023-03-11T08:12:24;6.90;;;4.70;;
50309;SDS011;36207;51.850;21.698;2023-03-11T08:14:50;7.50;;;5.40;;
50309;SDS011;36207;51.850;21.698;2023-03-11T08:17:16;9.10;;;6.60;;
50309;SDS011;36207;51.850;21.698;2023-03-11T08:19:42;9.80;;;7.30;;
50309;SDS011;36207;51.850;21.698;2023-03-11T08:22:08;8.00;;;6.30;;
50309;SDS011;36207;51.850;21.698;2023-03-11T08:24:34;10.50;;;7.20;;
50309;SDS011;36207;51.850;21.698;2023-03-11T08:27:00;8.20;;;6.40;;
50309;SDS011;36207;51.850;21.698;2023-03-11T08:29:26;7.50;;;5.50;;
50309;SDS011;36207;51.850;21.698;2023-03-11T08:31:52;7.80;;;4.80;;
50309;SDS011;36207;51.850;21.698;2023-03-11T08:34:18;6.30;;;5.20;;
50309;SDS011;36207;51.850;21.698;2023-03-11T08:36:46;8.40;;;6.10;;
50309;SDS011;36207;51.850;21.698;2023-03-11T08:39:12;8.20;;;5.90;;
50309;SDS011;36207;51.850;21.698;2023-03-11T08:41:38;5.50;;;3.90;;
50309;SDS011;36207;51.850;21.698;2023-03-11T08:44:04;8.20;;;5.00;;
50309;SDS011;36207;51.850;21.698;2023-03-11T08:46:31;7.00;;;4.90;;
50309;SDS011;36207;51.850;21.698;2023-03-11T08:48:59;5.90;;;4.70;;
50309;SDS011;36207;51.850;21.698;2023-03-11T08:51:26;6.50;;;4.80;;
50309;SDS011;36207;51.850;21.698;2023-03-11T08:53:52;7.80;;;5.10;;
50309;SDS011;36207;51.850;21.698;2023-03-11T08:56:19;6.30;;;5.00;;
50309;SDS011;36207;51.850;21.698;2023-03-11T08:58:45;7.20;;;5.40;;
50309;SDS011;36207;51.850;21.698;2023-03-11T09:01:12;5.60;;;4.40;;
50309;SDS011;36207;51.850;21.698;2023-03-11T09:03:38;5.70;;;4.20;;
50309;SDS011;36207;51.850;21.698;2023-03-11T09:06:09;5.70;;;4.50;;
50309;SDS011;36207;51.850;21.698;2023-03-11T09:08:40;6.50;;;4.60;;
50309;SDS011;36207;51.850;21.698;2023-03-11T09:11:07;7.20;;;4.60;;
50309;SDS011;36207;51.850;21.698;2023-03-11T09:13:34;7.90;;;4.90;;
50309;SDS011;36207;51.850;21.698;2023-03-11T09:16:00;7.40;;;4.20;;
50309;SDS011;36207;51.850;21.698;2023-03-11T09:18:27;9.00;;;5.20;;
50309;SDS011;36207;51.850;21.698;2023-03-11T09:20:53;6.40;;;4.50;;
50309;SDS011;36207;51.850;21.698;2023-03-11T09:23:22;7.30;;;4.60;;
50309;SDS011;36207;51.850;21.698;2023-03-11T09:25:49;5.80;;;4.50;;
50309;SDS011;36207;51.850;21.698;2023-03-11T09:28:15;6.00;;;4.30;;
50309;SDS011;36207;51.850;21.698;2023-03-11T09:30:40;6.50;;;4.40;;
50309;SDS011;36207;51.850;21.698;2023-03-11T09:33:07;6.40;;;4.60;;
50309;SDS011;36207;51.850;21.698;2023-03-11T09:35:33;6.60;;;4.60;;
50309;SDS011;36207;51.850;21.698;2023-03-11T09:37:59;6.20;;;4.60;;
50309;SDS011;36207;51.850;21.698;2023-03-11T09:40:25;7.70;;;4.90;;
50309;SDS011;36207;51.850;21.698;2023-03-11T09:45:52;8.20;;;5.20;;
50309;SDS011;36207;51.850;21.698;2023-03-11T09:51:36;8.10;;;5.60;;
50309;SDS011;36207;51.850;21.698;2023-03-11T09:54:09;8.60;;;5.20;;
50309;SDS011;36207;51.850;21.698;2023-03-11T09:56:36;8.00;;;5.80;;
50309;SDS011;36207;51.850;21.698;2023-03-11T10:01:59;7.60;;;5.80;;
50309;SDS011;36207;51.850;21.698;2023-03-11T10:04:26;7.50;;;5.60;;
50309;SDS011;36207;51.850;21.698;2023-03-11T10:06:58;9.40;;;6.40;;
50309;SDS011;36207;51.850;21.698;2023-03-11T10:09:45;10.00;;;6.20;;
50309;SDS011;36207;51.850;21.698;2023-03-11T10:15:03;8.40;;;5.70;;
50309;SDS011;36207;51.850;21.698;2023-03-11T10:31:47;8.90;;;6.40;;
50309;SDS011;36207;51.850;21.698;2023-03-11T10:34:23;9.60;;;6.30;;
50309;SDS011;36207;51.850;21.698;2023-03-11T10:36:58;9.90;;;6.60;;
50309;SDS011;36207;51.850;21.698;2023-03-11T10:39:29;9.40;;;6.10;;
50309;SDS011;36207;51.850;21.698;2023-03-11T10:41:58;9.50;;;6.40;;
50309;SDS011;36207;51.850;21.698;2023-03-11T10:44:39;8.70;;;5.40;;
50309;SDS011;36207;51.850;21.698;2023-03-11T10:47:11;11.50;;;6.30;;
50309;SDS011;36207;51.850;21.698;2023-03-11T10:49:43;10.20;;;6.40;;
50309;SDS011;36207;51.850;21.698;2023-03-11T10:52:09;8.80;;;6.20;;
50309;SDS011;36207;51.850;21.698;2023-03-11T10:54:37;11.20;;;6.40;;
50309;SDS011;36207;51.850;21.698;2023-03-11T10:57:21;11.00;;;7.20;;
50309;SDS011;36207;51.850;21.698;2023-03-11T10:59:51;8.90;;;6.00;;
50309;SDS011;36207;51.850;21.698;2023-03-11T11:04:47;11.80;;;6.30;;
50309;SDS011;36207;51.850;21.698;2023-03-11T11:07:29;8.90;;;5.80;;
50309;SDS011;36207;51.850;21.698;2023-03-11T11:12:58;11.10;;;6.50;;
50309;SDS011;36207;51.850;21.698;2023-03-11T11:15:29;10.10;;;6.10;;
50309;SDS011;36207;51.850;21.698;2023-03-11T11:18:01;8.70;;;5.80;;
50309;SDS011;36207;51.850;21.698;2023-03-11T11:20:31;9.20;;;5.70;;
50309;SDS011;36207;51.850;21.698;2023-03-11T11:22:59;7.20;;;5.10;;
50309;SDS011;36207;51.850;21.698;2023-03-11T11:25:31;7.40;;;4.80;;
50309;SDS011;36207;51.850;21.698;2023-03-11T11:27:59;7.10;;;4.50;;
50309;SDS011;36207;51.850;21.698;2023-03-11T11:30:51;7.40;;;4.80;;
50309;SDS011;36207;51.850;21.698;2023-03-11T11:33:32;8.60;;;5.10;;
50309;SDS011;36207;51.850;21.698;2023-03-11T11:36:03;7.00;;;4.90;;
50309;SDS011;36207;51.850;21.698;2023-03-11T11:38:31;11.10;;;7.50;;
50309;SDS011;36207;51.850;21.698;2023-03-11T11:41:00;14.60;;;9.70;;
50309;SDS011;36207;51.850;21.698;2023-03-11T11:54:14;26.60;;;17.80;;
50309;SDS011;36207;51.850;21.698;2023-03-11T11:56:45;27.90;;;17.80;;
50309;SDS011;36207;51.850;21.698;2023-03-11T11:59:15;27.50;;;18.40;;
50309;SDS011;36207;51.850;21.698;2023-03-11T12:04:45;33.10;;;18.80;;
50309;SDS011;36207;51.850;21.698;2023-03-11T12:18:07;21.50;;;13.90;;
50309;SDS011;36207;51.850;21.698;2023-03-11T12:20:41;18.60;;;12.20;;
50309;SDS011;36207;51.850;21.698;2023-03-11T12:31:26;9.20;;;6.00;;
50309;SDS011;36207;51.850;21.698;2023-03-11T12:33:59;8.90;;;5.80;;
50309;SDS011;36207;51.850;21.698;2023-03-11T12:36:29;11.60;;;7.20;;
50309;SDS011;36207;51.850;21.698;2023-03-11T12:39:02;9.50;;;6.30;;
50309;SDS011;36207;51.850;21.698;2023-03-11T12:41:37;9.90;;;6.40;;
50309;SDS011;36207;51.850;21.698;2023-03-11T12:49:22;12.60;;;8.10;;
50309;SDS011;36207;51.850;21.698;2023-03-11T12:54:43;11.60;;;7.30;;
50309;SDS011;36207;51.850;21.698;2023-03-11T13:03:13;10.30;;;6.90;;
50309;SDS011;36207;51.850;21.698;2023-03-11T13:06:03;11.50;;;7.00;;
50309;SDS011;36207;51.850;21.698;2023-03-11T13:14:08;9.70;;;6.80;;
50309;SDS011;36207;51.850;21.698;2023-03-11T13:16:37;10.30;;;7.00;;
50309;SDS011;36207;51.850;21.698;2023-03-11T13:21:54;8.80;;;6.70;;
50309;SDS011;36207;51.850;21.698;2023-03-11T13:37:42;10.10;;;7.10;;
50309;SDS011;36207;51.850;21.698;2023-03-11T13:43:23;9.90;;;6.90;;
50309;SDS011;36207;51.850;21.698;2023-03-11T13:45:55;9.40;;;6.40;;
50309;SDS011;36207;51.850;21.698;2023-03-11T13:48:29;9.40;;;6.30;;
50309;SDS011;36207;51.850;21.698;2023-03-11T13:51:06;11.10;;;7.10;;
50309;SDS011;36207;51.850;21.698;2023-03-11T13:53:47;10.90;;;6.60;;
50309;SDS011;36207;51.850;21.698;2023-03-11T13:56:25;9.30;;;6.90;;
50309;SDS011;36207;51.850;21.698;2023-03-11T13:58:52;10.40;;;6.90;;
50309;SDS011;36207;51.850;21.698;2023-03-11T14:01:18;10.10;;;6.80;;
50309;SDS011;36207;51.850;21.698;2023-03-11T14:03:45;11.10;;;7.00;;
50309;SDS011;36207;51.850;21.698;2023-03-11T14:06:13;10.50;;;6.70;;
50309;SDS011;36207;51.850;21.698;2023-03-11T14:08:40;10.20;;;6.90;;
50309;SDS011;36207;51.850;21.698;2023-03-11T14:13:41;9.30;;;6.60;;
50309;SDS011;36207;51.850;21.698;2023-03-11T14:16:18;11.60;;;7.10;;
50309;SDS011;36207;51.850;21.698;2023-03-11T14:18:48;13.10;;;7.40;;
50309;SDS011;36207;51.850;21.698;2023-03-11T14:21:33;11.50;;;7.40;;
50309;SDS011;36207;51.850;21.698;2023-03-11T14:23:59;12.10;;;7.70;;
50309;SDS011;36207;51.850;21.698;2023-03-11T14:26:28;11.50;;;7.50;;
50309;SDS011;36207;51.850;21.698;2023-03-11T14:28:57;13.50;;;8.40;;
50309;SDS011;36207;51.850;21.698;2023-03-11T14:39:46;12.50;;;7.40;;
50309;SDS011;36207;51.850;21.698;2023-03-11T14:42:13;12.00;;;7.50;;
50309;SDS011;36207;51.850;21.698;2023-03-11T14:44:50;11.20;;;7.20;;
50309;SDS011;36207;51.850;21.698;2023-03-11T14:49:51;9.40;;;6.30;;
50309;SDS011;36207;51.850;21.698;2023-03-11T14:52:20;11.20;;;6.70;;
50309;SDS011;36207;51.850;21.698;2023-03-11T14:55:00;12.10;;;7.20;;
50309;SDS011;36207;51.850;21.698;2023-03-11T14:57:38;11.50;;;7.20;;
50309;SDS011;36207;51.850;21.698;2023-03-11T15:00:12;11.10;;;7.30;;
50309;SDS011;36207;51.850;21.698;2023-03-11T15:02:46;10.60;;;6.80;;
50309;SDS011;36207;51.850;21.698;2023-03-11T15:05:40;13.10;;;8.20;;
50309;SDS011;36207;51.850;21.698;2023-03-11T15:08:30;10.90;;;7.40;;
50309;SDS011;36207;51.850;21.698;2023-03-11T15:11:00;11.80;;;7.60;;
50309;SDS011;36207;51.850;21.698;2023-03-11T15:13:27;11.80;;;7.30;;
50309;SDS011;36207;51.850;21.698;2023-03-11T15:15:56;13.20;;;7.40;;
50309;SDS011;36207;51.850;21.698;2023-03-11T15:18:24;11.90;;;7.00;;
50309;SDS011;36207;51.850;21.698;2023-03-11T15:21:11;12.00;;;7.50;;
50309;SDS011;36207;51.850;21.698;2023-03-11T15:23:46;13.20;;;7.90;;
50309;SDS011;36207;51.850;21.698;2023-03-11T15:26:16;12.90;;;7.60;;
50309;SDS011;36207;51.850;21.698;2023-03-11T15:29:11;13.40;;;7.20;;
50309;SDS011;36207;51.850;21.698;2023-03-11T15:31:40;13.40;;;8.40;;
50309;SDS011;36207;51.850;21.698;2023-03-11T15:34:30;12.80;;;7.90;;
50309;SDS011;36207;51.850;21.698;2023-03-11T15:41:58;12.70;;;7.80;;
50309;SDS011;36207;51.850;21.698;2023-03-11T15:44:30;13.80;;;8.30;;
50309;SDS011;36207;51.850;21.698;2023-03-11T15:47:16;14.30;;;8.10;;
50309;SDS011;36207;51.850;21.698;2023-03-11T15:49:43;13.00;;;8.10;;
50309;SDS011;36207;51.850;21.698;2023-03-11T15:52:10;15.20;;;8.10;;
50309;SDS011;36207;51.850;21.698;2023-03-11T15:54:36;15.40;;;8.00;;
50309;SDS011;36207;51.850;21.698;2023-03-11T15:57:04;15.50;;;8.70;;
50309;SDS011;36207;51.850;21.698;2023-03-11T15:59:32;13.20;;;7.90;;
50309;SDS011;36207;51.850;21.698;2023-03-11T16:01:59;14.30;;;7.90;;
50309;SDS011;36207;51.850;21.698;2023-03-11T16:04:25;12.00;;;7.00;;
50309;SDS011;36207;51.850;21.698;2023-03-11T16:06:51;13.10;;;6.70;;
50309;SDS011;36207;51.850;21.698;2023-03-11T16:09:18;12.00;;;6.90;;
50309;SDS011;36207;51.850;21.698;2023-03-11T16:11:45;12.50;;;6.60;;
50309;SDS011;36207;51.850;21.698;2023-03-11T16:14:15;10.60;;;6.00;;
50309;SDS011;36207;51.850;21.698;2023-03-11T16:16:43;11.30;;;5.50;;
50309;SDS011;36207;51.850;21.698;2023-03-11T16:19:10;12.10;;;6.20;;
50309;SDS011;36207;51.850;21.698;2023-03-11T16:21:38;11.60;;;6.70;;
50309;SDS011;36207;51.850;21.698;2023-03-11T16:24:07;13.00;;;6.90;;
50309;SDS011;36207;51.850;21.698;2023-03-11T16:26:37;12.10;;;6.90;;
50309;SDS011;36207;51.850;21.698;2023-03-11T16:29:03;12.70;;;7.10;;
50309;SDS011;36207;51.850;21.698;2023-03-11T16:31:28;12.40;;;6.70;;
50309;SDS011;36207;51.850;21.698;2023-03-11T16:33:55;15.20;;;7.10;;
50309;SDS011;36207;51.850;21.698;2023-03-11T16:36:21;14.60;;;7.50;;
50309;SDS011;36207;51.850;21.698;2023-03-11T16:38:48;16.40;;;7.00;;
50309;SDS011;36207;51.850;21.698;2023-03-11T16:41:15;14.40;;;7.40;;
50309;SDS011;36207;51.850;21.698;2023-03-11T16:43:41;16.60;;;8.10;;
50309;SDS011;36207;51.850;21.698;2023-03-11T16:46:07;13.50;;;7.90;;
50309;SDS011;36207;51.850;21.698;2023-03-11T16:48:33;14.50;;;7.40;;